sensor_id;sensor_type;location;lat;lon;timestamp;P1;durP1;ratioP1;P2;durP2;ratioP2
5674;SDS011;2860;54.284;10.158;2023-05-06T00:01:33;5.15;;;4.40;;
5674;SDS011;2860;54.284;10.158;2023-05-06T00:04:00;10.27;;;4.72;;
5674;SDS011;2860;54.284;10.158;2023-05-06T00:06:26;7.60;;;4.60;;
5674;SDS011;2860;54.284;10.158;2023-05-06T00:08:52;5.18;;;4.38;;
5674;SDS011;2860;54.284;10.158;2023-05-06T00:11:18;7.00;;;3.65;;
5674;SDS011;2860;54.284;10.158;2023-05-06T00:13:43;13.35;;;4.75;;
5674;SDS011;2860;54.284;10.158;2023-05-06T00:16:09;7.82;;;5.03;;
5674;SDS011;2860;54.284;10.158;2023-05-06T00:18:35;11.25;;;4.65;;
5674;SDS011;2860;54.284;10.158;2023-05-06T00:21:00;9.65;;;4.43;;
5674;SDS011;2860;54.284;10.158;2023-05-06T00:23:26;6.45;;;4.55;;
5674;SDS011;2860;54.284;10.158;2023-05-06T00:25:52;9.32;;;5.25;;
5674;SDS011;2860;54.284;10.158;2023-05-06T00:28:18;11.85;;;5.03;;
5674;SDS011;2860;54.284;10.158;2023-05-06T00:30:44;16.35;;;4.60;;
5674;SDS011;2860;54.284;10.158;2023-05-06T00:33:09;8.13;;;4.88;;
5674;SDS011;2860;54.284;10.158;2023-05-06T00:35:35;7.10;;;4.90;;
5674;SDS011;2860;54.284;10.158;2023-05-06T00:38:07;5.90;;;3.90;;
5674;SDS011;2860;54.284;10.158;2023-05-06T00:40:34;14.23;;;4.72;;
5674;SDS011;2860;54.284;10.158;2023-05-06T00:43:00;7.43;;;5.45;;
5674;SDS011;2860;54.284;10.158;2023-05-06T00:45:26;13.52;;;5.85;;
5674;SDS011;2860;54.284;10.158;2023-05-06T00:47:52;10.00;;;4.65;;
5674;SDS011;2860;54.284;10.158;2023-05-06T00:50:17;11.43;;;4.95;;
5674;SDS011;2860;54.284;10.158;2023-05-06T00:52:43;13.35;;;5.20;;
5674;SDS011;2860;54.284;10.158;2023-05-06T00:55:10;9.27;;;5.20;;
5674;SDS011;2860;54.284;10.158;2023-05-06T00:57:35;11.40;;;4.70;;
5674;SDS011;2860;54.284;10.158;2023-05-06T01:00:01;5.72;;;5.30;;
5674;SDS011;2860;54.284;10.158;2023-05-06T01:02:28;6.47;;;5.63;;
5674;SDS011;2860;54.284;10.158;2023-05-06T01:04:54;15.07;;;4.57;;
5674;SDS011;2860;54.284;10.158;2023-05-06T01:10:01;28.40;;;5.35;;
5674;SDS011;2860;54.284;10.158;2023-05-06T01:15:19;8.63;;;5.30;;
5674;SDS011;2860;54.284;10.158;2023-05-06T01:17:49;8.18;;;4.35;;
5674;SDS011;2860;54.284;10.158;2023-05-06T01:20:17;12.75;;;5.85;;
5674;SDS011;2860;54.284;10.158;2023-05-06T01:22:44;7.40;;;5.15;;
5674;SDS011;2860;54.284;10.158;2023-05-06T01:25:20;9.13;;;4.82;;
5674;SDS011;2860;54.284;10.158;2023-05-06T01:27:46;11.60;;;5.70;;
5674;SDS011;2860;54.284;10.158;2023-05-06T01:30:12;13.45;;;5.88;;
5674;SDS011;2860;54.284;10.158;2023-05-06T01:32:44;10.52;;;5.82;;
5674;SDS011;2860;54.284;10.158;2023-05-06T01:41:05;13.63;;;5.82;;
5674;SDS011;2860;54.284;10.158;2023-05-06T01:43:35;11.75;;;5.78;;
5674;SDS011;2860;54.284;10.158;2023-05-06T01:46:05;11.45;;;5.97;;
5674;SDS011;2860;54.284;10.158;2023-05-06T01:48:33;10.93;;;5.13;;
5674;SDS011;2860;54.284;10.158;2023-05-06T01:51:02;8.45;;;6.07;;
5674;SDS011;2860;54.284;10.158;2023-05-06T01:53:28;8.75;;;6.20;;
5674;SDS011;2860;54.284;10.158;2023-05-06T01:55:53;14.77;;;5.88;;
5674;SDS011;2860;54.284;10.158;2023-05-06T01:58:19;6.80;;;6.20;;
5674;SDS011;2860;54.284;10.158;2023-05-06T02:00:44;21.52;;;5.80;;
5674;SDS011;2860;54.284;10.158;2023-05-06T02:03:10;11.27;;;7.53;;
5674;SDS011;2860;54.284;10.158;2023-05-06T02:05:35;12.45;;;6.07;;
5674;SDS011;2860;54.284;10.158;2023-05-06T02:08:01;7.55;;;5.85;;
5674;SDS011;2860;54.284;10.158;2023-05-06T02:10:26;6.00;;;5.03;;
5674;SDS011;2860;54.284;10.158;2023-05-06T02:12:52;6.45;;;5.75;;
5674;SDS011;2860;54.284;10.158;2023-05-06T02:15:17;8.77;;;5.72;;
5674;SDS011;2860;54.284;10.158;2023-05-06T02:17:43;8.63;;;5.55;;
5674;SDS011;2860;54.284;10.158;2023-05-06T02:20:08;11.00;;;6.22;;
5674;SDS011;2860;54.284;10.158;2023-05-06T02:22:34;10.48;;;5.00;;
5674;SDS011;2860;54.284;10.158;2023-05-06T02:25:00;7.60;;;5.15;;
5674;SDS011;2860;54.284;10.158;2023-05-06T02:27:25;5.68;;;4.80;;
5674;SDS011;2860;54.284;10.158;2023-05-06T02:29:51;10.90;;;5.95;;
5674;SDS011;2860;54.284;10.158;2023-05-06T02:32:17;15.48;;;5.95;;
5674;SDS011;2860;54.284;10.158;2023-05-06T02:34:42;18.20;;;5.97;;
5674;SDS011;2860;54.284;10.158;2023-05-06T02:37:08;12.68;;;6.30;;
5674;SDS011;2860;54.284;10.158;2023-05-06T02:39:33;10.70;;;5.93;;
5674;SDS011;2860;54.284;10.158;2023-05-06T02:41:59;10.30;;;6.50;;
5674;SDS011;2860;54.284;10.158;2023-05-06T02:44:25;16.25;;;6.15;;
5674;SDS011;2860;54.284;10.158;2023-05-06T02:46:50;10.15;;;6.57;;
5674;SDS011;2860;54.284;10.158;2023-05-06T02:49:16;7.85;;;5.95;;
5674;SDS011;2860;54.284;10.158;2023-05-06T02:51:41;6.80;;;5.20;;
5674;SDS011;2860;54.284;10.158;2023-05-06T02:54:07;7.63;;;5.70;;
5674;SDS011;2860;54.284;10.158;2023-05-06T02:56:32;6.97;;;5.63;;
5674;SDS011;2860;54.284;10.158;2023-05-06T02:58:59;7.75;;;5.82;;
5674;SDS011;2860;54.284;10.158;2023-05-06T03:01:24;7.85;;;5.28;;
5674;SDS011;2860;54.284;10.158;2023-05-06T03:03:50;8.30;;;5.57;;
5674;SDS011;2860;54.284;10.158;2023-05-06T03:06:15;8.90;;;5.93;;
5674;SDS011;2860;54.284;10.158;2023-05-06T03:08:41;9.13;;;5.68;;
5674;SDS011;2860;54.284;10.158;2023-05-06T03:11:06;8.15;;;6.47;;
5674;SDS011;2860;54.284;10.158;2023-05-06T03:13:32;15.02;;;6.05;;
5674;SDS011;2860;54.284;10.158;2023-05-06T03:15:57;7.72;;;5.68;;
5674;SDS011;2860;54.284;10.158;2023-05-06T03:18:23;14.77;;;6.95;;
5674;SDS011;2860;54.284;10.158;2023-05-06T03:20:48;10.55;;;6.30;;
5674;SDS011;2860;54.284;10.158;2023-05-06T03:23:14;21.63;;;7.50;;
5674;SDS011;2860;54.284;10.158;2023-05-06T03:25:39;11.38;;;7.00;;
5674;SDS011;2860;54.284;10.158;2023-05-06T03:28:05;14.63;;;6.57;;
5674;SDS011;2860;54.284;10.158;2023-05-06T03:30:30;6.35;;;5.55;;
5674;SDS011;2860;54.284;10.158;2023-05-06T03:32:58;10.80;;;7.00;;
5674;SDS011;2860;54.284;10.158;2023-05-06T03:35:25;8.50;;;7.15;;
5674;SDS011;2860;54.284;10.158;2023-05-06T03:37:50;19.05;;;8.00;;
5674;SDS011;2860;54.284;10.158;2023-05-06T03:40:16;8.25;;;6.25;;
5674;SDS011;2860;54.284;10.158;2023-05-06T03:42:41;10.25;;;6.32;;
5674;SDS011;2860;54.284;10.158;2023-05-06T03:45:07;8.27;;;7.18;;
5674;SDS011;2860;54.284;10.158;2023-05-06T03:47:33;12.98;;;6.95;;
5674;SDS011;2860;54.284;10.158;2023-05-06T03:49:58;14.15;;;6.47;;
5674;SDS011;2860;54.284;10.158;2023-05-06T03:52:24;12.05;;;6.57;;
5674;SDS011;2860;54.284;10.158;2023-05-06T03:54:49;8.88;;;6.85;;
5674;SDS011;2860;54.284;10.158;2023-05-06T03:57:15;16.08;;;6.60;;
5674;SDS011;2860;54.284;10.158;2023-05-06T03:59:40;13.73;;;6.38;;
5674;SDS011;2860;54.284;10.158;2023-05-06T04:02:06;14.32;;;6.28;;
5674;SDS011;2860;54.284;10.158;2023-05-06T04:04:31;12.63;;;6.45;;
5674;SDS011;2860;54.284;10.158;2023-05-06T04:06:58;12.98;;;6.50;;
5674;SDS011;2860;54.284;10.158;2023-05-06T04:09:24;10.65;;;6.05;;
5674;SDS011;2860;54.284;10.158;2023-05-06T04:11:50;12.65;;;6.80;;
5674;SDS011;2860;54.284;10.158;2023-05-06T04:14:15;6.47;;;5.72;;
5674;SDS011;2860;54.284;10.158;2023-05-06T04:16:41;13.27;;;5.93;;
5674;SDS011;2860;54.284;10.158;2023-05-06T04:19:07;10.95;;;5.90;;
5674;SDS011;2860;54.284;10.158;2023-05-06T04:21:32;13.93;;;7.32;;
5674;SDS011;2860;54.284;10.158;2023-05-06T04:23:58;8.68;;;6.63;;
5674;SDS011;2860;54.284;10.158;2023-05-06T04:26:24;10.10;;;6.53;;
5674;SDS011;2860;54.284;10.158;2023-05-06T04:28:49;9.50;;;6.43;;
5674;SDS011;2860;54.284;10.158;2023-05-06T04:31:15;9.60;;;6.38;;
5674;SDS011;2860;54.284;10.158;2023-05-06T04:33:40;12.48;;;6.80;;
5674;SDS011;2860;54.284;10.158;2023-05-06T04:36:06;11.55;;;7.32;;
5674;SDS011;2860;54.284;10.158;2023-05-06T04:38:32;7.50;;;6.75;;
5674;SDS011;2860;54.284;10.158;2023-05-06T04:40:59;11.40;;;5.88;;
5674;SDS011;2860;54.284;10.158;2023-05-06T04:43:25;10.93;;;6.78;;
5674;SDS011;2860;54.284;10.158;2023-05-06T04:45:53;16.55;;;6.97;;
5674;SDS011;2860;54.284;10.158;2023-05-06T04:48:19;16.15;;;7.13;;
5674;SDS011;2860;54.284;10.158;2023-05-06T04:50:46;10.30;;;6.07;;
5674;SDS011;2860;54.284;10.158;2023-05-06T04:53:12;14.60;;;7.50;;
5674;SDS011;2860;54.284;10.158;2023-05-06T04:55:38;8.38;;;6.60;;
5674;SDS011;2860;54.284;10.158;2023-05-06T04:58:03;9.95;;;6.22;;
5674;SDS011;2860;54.284;10.158;2023-05-06T05:00:29;7.38;;;6.53;;
5674;SDS011;2860;54.284;10.158;2023-05-06T05:02:54;10.43;;;7.63;;
5674;SDS011;2860;54.284;10.158;2023-05-06T05:05:20;8.02;;;6.47;;
5674;SDS011;2860;54.284;10.158;2023-05-06T05:07:45;13.40;;;7.25;;
5674;SDS011;2860;54.284;10.158;2023-05-06T05:10:11;12.30;;;7.10;;
5674;SDS011;2860;54.284;10.158;2023-05-06T05:12:37;7.55;;;6.43;;
5674;SDS011;2860;54.284;10.158;2023-05-06T05:15:02;10.77;;;7.38;;
5674;SDS011;2860;54.284;10.158;2023-05-06T05:17:28;7.90;;;6.80;;
5674;SDS011;2860;54.284;10.158;2023-05-06T05:19:54;11.07;;;7.05;;
5674;SDS011;2860;54.284;10.158;2023-05-06T05:22:19;10.85;;;7.40;;
5674;SDS011;2860;54.284;10.158;2023-05-06T05:24:45;11.40;;;6.32;;
5674;SDS011;2860;54.284;10.158;2023-05-06T05:27:10;13.73;;;7.03;;
5674;SDS011;2860;54.284;10.158;2023-05-06T05:29:36;8.18;;;6.40;;
5674;SDS011;2860;54.284;10.158;2023-05-06T05:32:02;9.27;;;6.90;;
5674;SDS011;2860;54.284;10.158;2023-05-06T05:34:28;8.50;;;6.35;;
5674;SDS011;2860;54.284;10.158;2023-05-06T05:36:54;7.32;;;6.30;;
5674;SDS011;2860;54.284;10.158;2023-05-06T05:39:21;6.70;;;6.03;;
5674;SDS011;2860;54.284;10.158;2023-05-06T05:41:47;11.00;;;8.05;;
5674;SDS011;2860;54.284;10.158;2023-05-06T05:44:12;10.20;;;7.45;;
5674;SDS011;2860;54.284;10.158;2023-05-06T05:46:38;10.25;;;7.70;;
5674;SDS011;2860;54.284;10.158;2023-05-06T05:49:04;10.13;;;7.13;;
5674;SDS011;2860;54.284;10.158;2023-05-06T05:51:30;9.45;;;6.57;;
5674;SDS011;2860;54.284;10.158;2023-05-06T05:53:56;7.45;;;6.82;;
5674;SDS011;2860;54.284;10.158;2023-05-06T05:56:21;10.23;;;7.43;;
5674;SDS011;2860;54.284;10.158;2023-05-06T05:58:47;7.75;;;7.07;;
5674;SDS011;2860;54.284;10.158;2023-05-06T06:01:12;7.77;;;6.97;;
5674;SDS011;2860;54.284;10.158;2023-05-06T06:03:38;8.68;;;7.70;;
5674;SDS011;2860;54.284;10.158;2023-05-06T06:06:04;11.57;;;7.00;;
5674;SDS011;2860;54.284;10.158;2023-05-06T06:08:29;13.93;;;7.80;;
5674;SDS011;2860;54.284;10.158;2023-05-06T06:10:56;10.07;;;8.00;;
5674;SDS011;2860;54.284;10.158;2023-05-06T06:13:22;7.88;;;6.82;;
5674;SDS011;2860;54.284;10.158;2023-05-06T06:15:47;8.93;;;7.55;;
5674;SDS011;2860;54.284;10.158;2023-05-06T06:18:13;11.18;;;8.30;;
5674;SDS011;2860;54.284;10.158;2023-05-06T06:20:38;10.07;;;8.30;;
5674;SDS011;2860;54.284;10.158;2023-05-06T06:23:04;9.48;;;8.13;;
5674;SDS011;2860;54.284;10.158;2023-05-06T06:25:29;9.38;;;7.38;;
5674;SDS011;2860;54.284;10.158;2023-05-06T06:27:55;10.27;;;7.95;;
5674;SDS011;2860;54.284;10.158;2023-05-06T06:30:21;11.20;;;7.72;;
5674;SDS011;2860;54.284;10.158;2023-05-06T06:32:47;13.02;;;8.40;;
5674;SDS011;2860;54.284;10.158;2023-05-06T06:35:14;10.55;;;8.55;;
5674;SDS011;2860;54.284;10.158;2023-05-06T06:37:39;10.48;;;7.35;;
5674;SDS011;2860;54.284;10.158;2023-05-06T06:40:05;8.80;;;7.90;;
5674;SDS011;2860;54.284;10.158;2023-05-06T06:42:31;11.23;;;7.88;;
5674;SDS011;2860;54.284;10.158;2023-05-06T06:44:57;14.77;;;9.07;;
5674;SDS011;2860;54.284;10.158;2023-05-06T06:47:22;9.65;;;7.88;;
5674;SDS011;2860;54.284;10.158;2023-05-06T06:49:47;9.93;;;9.00;;
5674;SDS011;2860;54.284;10.158;2023-05-06T06:52:13;10.68;;;8.70;;
5674;SDS011;2860;54.284;10.158;2023-05-06T06:54:38;12.68;;;9.32;;
5674;SDS011;2860;54.284;10.158;2023-05-06T06:57:07;15.57;;;9.00;;
5674;SDS011;2860;54.284;10.158;2023-05-06T06:59:32;10.55;;;8.18;;
5674;SDS011;2860;54.284;10.158;2023-05-06T07:01:58;13.18;;;8.75;;
5674;SDS011;2860;54.284;10.158;2023-05-06T07:04:23;11.30;;;8.05;;
5674;SDS011;2860;54.284;10.158;2023-05-06T07:06:49;9.80;;;8.10;;
5674;SDS011;2860;54.284;10.158;2023-05-06T07:09:15;11.05;;;9.80;;
5674;SDS011;2860;54.284;10.158;2023-05-06T07:11:41;11.45;;;8.30;;
5674;SDS011;2860;54.284;10.158;2023-05-06T07:14:06;12.18;;;8.45;;
5674;SDS011;2860;54.284;10.158;2023-05-06T07:16:32;12.18;;;8.50;;
5674;SDS011;2860;54.284;10.158;2023-05-06T07:18:58;12.35;;;8.85;;
5674;SDS011;2860;54.284;10.158;2023-05-06T07:21:24;10.13;;;9.18;;
5674;SDS011;2860;54.284;10.158;2023-05-06T07:23:51;9.63;;;8.52;;
5674;SDS011;2860;54.284;10.158;2023-05-06T07:26:16;9.32;;;8.07;;
5674;SDS011;2860;54.284;10.158;2023-05-06T07:28:42;11.70;;;7.97;;
5674;SDS011;2860;54.284;10.158;2023-05-06T07:31:07;12.40;;;9.52;;
5674;SDS011;2860;54.284;10.158;2023-05-06T07:33:33;11.38;;;9.23;;
5674;SDS011;2860;54.284;10.158;2023-05-06T07:35:58;11.15;;;8.00;;
5674;SDS011;2860;54.284;10.158;2023-05-06T07:38:24;14.60;;;7.28;;
5674;SDS011;2860;54.284;10.158;2023-05-06T07:40:49;9.52;;;8.55;;
5674;SDS011;2860;54.284;10.158;2023-05-06T07:43:15;15.50;;;8.13;;
5674;SDS011;2860;54.284;10.158;2023-05-06T07:45:41;9.45;;;8.70;;
5674;SDS011;2860;54.284;10.158;2023-05-06T07:48:06;8.95;;;8.10;;
5674;SDS011;2860;54.284;10.158;2023-05-06T07:50:32;12.82;;;9.55;;
5674;SDS011;2860;54.284;10.158;2023-05-06T07:52:58;8.82;;;7.72;;
5674;SDS011;2860;54.284;10.158;2023-05-06T07:55:24;8.68;;;7.57;;
5674;SDS011;2860;54.284;10.158;2023-05-06T07:57:50;10.27;;;8.88;;
5674;SDS011;2860;54.284;10.158;2023-05-06T08:00:16;9.35;;;8.13;;
5674;SDS011;2860;54.284;10.158;2023-05-06T08:02:42;9.90;;;8.20;;
5674;SDS011;2860;54.284;10.158;2023-05-06T08:05:08;9.73;;;8.73;;
5674;SDS011;2860;54.284;10.158;2023-05-06T08:07:35;9.50;;;8.63;;
5674;SDS011;2860;54.284;10.158;2023-05-06T08:10:01;9.95;;;8.20;;
5674;SDS011;2860;54.284;10.158;2023-05-06T08:12:27;10.63;;;8.10;;
5674;SDS011;2860;54.284;10.158;2023-05-06T08:14:52;14.35;;;8.13;;
5674;SDS011;2860;54.284;10.158;2023-05-06T08:17:19;10.60;;;9.68;;
5674;SDS011;2860;54.284;10.158;2023-05-06T08:19:45;19.35;;;13.00;;
5674;SDS011;2860;54.284;10.158;2023-05-06T08:22:10;11.23;;;7.80;;
5674;SDS011;2860;54.284;10.158;2023-05-06T08:24:36;13.20;;;9.32;;
5674;SDS011;2860;54.284;10.158;2023-05-06T08:27:01;9.40;;;8.55;;
5674;SDS011;2860;54.284;10.158;2023-05-06T08:29:28;9.68;;;8.18;;
5674;SDS011;2860;54.284;10.158;2023-05-06T08:31:53;9.40;;;8.52;;
5674;SDS011;2860;54.284;10.158;2023-05-06T08:34:19;10.80;;;8.20;;
5674;SDS011;2860;54.284;10.158;2023-05-06T08:36:45;12.70;;;9.07;;
5674;SDS011;2860;54.284;10.158;2023-05-06T08:39:12;9.93;;;8.95;;
5674;SDS011;2860;54.284;10.158;2023-05-06T08:41:38;9.82;;;8.80;;
5674;SDS011;2860;54.284;10.158;2023-05-06T08:44:06;16.67;;;10.15;;
5674;SDS011;2860;54.284;10.158;2023-05-06T08:46:32;13.50;;;9.25;;
5674;SDS011;2860;54.284;10.158;2023-05-06T08:48:58;10.32;;;7.97;;
5674;SDS011;2860;54.284;10.158;2023-05-06T08:51:27;10.77;;;8.20;;
5674;SDS011;2860;54.284;10.158;2023-05-06T08:53:55;8.80;;;8.00;;
5674;SDS011;2860;54.284;10.158;2023-05-06T08:56:28;9.07;;;8.20;;
5674;SDS011;2860;54.284;10.158;2023-05-06T08:58:56;9.68;;;8.20;;
5674;SDS011;2860;54.284;10.158;2023-05-06T09:01:23;10.48;;;7.45;;
5674;SDS011;2860;54.284;10.158;2023-05-06T09:03:51;7.88;;;6.90;;
5674;SDS011;2860;54.284;10.158;2023-05-06T09:06:17;8.07;;;7.32;;
5674;SDS011;2860;54.284;10.158;2023-05-06T09:08:46;7.63;;;7.00;;
5674;SDS011;2860;54.284;10.158;2023-05-06T09:11:27;9.63;;;6.72;;
5674;SDS011;2860;54.284;10.158;2023-05-06T09:16:42;7.65;;;7.05;;
5674;SDS011;2860;54.284;10.158;2023-05-06T09:19:09;6.75;;;6.15;;
5674;SDS011;2860;54.284;10.158;2023-05-06T09:21:36;7.45;;;6.88;;
5674;SDS011;2860;54.284;10.158;2023-05-06T09:24:04;9.32;;;7.93;;
5674;SDS011;2860;54.284;10.158;2023-05-06T09:26:31;8.85;;;8.20;;
5674;SDS011;2860;54.284;10.158;2023-05-06T09:28:58;7.55;;;7.10;;
5674;SDS011;2860;54.284;10.158;2023-05-06T09:31:25;8.05;;;7.45;;
5674;SDS011;2860;54.284;10.158;2023-05-06T09:33:52;8.55;;;7.75;;
5674;SDS011;2860;54.284;10.158;2023-05-06T09:36:18;7.32;;;6.88;;
5674;SDS011;2860;54.284;10.158;2023-05-06T09:38:44;9.02;;;7.13;;
5674;SDS011;2860;54.284;10.158;2023-05-06T09:41:11;8.57;;;7.85;;
5674;SDS011;2860;54.284;10.158;2023-05-06T09:43:37;8.18;;;7.45;;
5674;SDS011;2860;54.284;10.158;2023-05-06T09:46:06;6.35;;;6.03;;
5674;SDS011;2860;54.284;10.158;2023-05-06T09:48:32;7.50;;;6.95;;
5674;SDS011;2860;54.284;10.158;2023-05-06T09:50:59;10.60;;;8.45;;
5674;SDS011;2860;54.284;10.158;2023-05-06T09:53:25;8.57;;;7.88;;
5674;SDS011;2860;54.284;10.158;2023-05-06T09:55:52;14.63;;;6.85;;
5674;SDS011;2860;54.284;10.158;2023-05-06T09:58:20;7.82;;;7.22;;
5674;SDS011;2860;54.284;10.158;2023-05-06T10:00:46;8.80;;;8.10;;
5674;SDS011;2860;54.284;10.158;2023-05-06T10:03:13;7.90;;;7.25;;
5674;SDS011;2860;54.284;10.158;2023-05-06T10:05:39;7.90;;;7.10;;
5674;SDS011;2860;54.284;10.158;2023-05-06T10:08:06;7.95;;;7.35;;
5674;SDS011;2860;54.284;10.158;2023-05-06T10:10:33;8.93;;;8.13;;
5674;SDS011;2860;54.284;10.158;2023-05-06T10:13:02;9.20;;;8.25;;
5674;SDS011;2860;54.284;10.158;2023-05-06T10:15:28;12.18;;;8.43;;
5674;SDS011;2860;54.284;10.158;2023-05-06T10:18:04;8.43;;;7.90;;
5674;SDS011;2860;54.284;10.158;2023-05-06T10:20:31;14.27;;;9.40;;
5674;SDS011;2860;54.284;10.158;2023-05-06T10:23:06;12.60;;;8.98;;
5674;SDS011;2860;54.284;10.158;2023-05-06T10:25:43;10.73;;;8.88;;
5674;SDS011;2860;54.284;10.158;2023-05-06T10:28:11;11.63;;;8.68;;
5674;SDS011;2860;54.284;10.158;2023-05-06T10:30:37;13.43;;;8.27;;
5674;SDS011;2860;54.284;10.158;2023-05-06T10:33:10;14.82;;;10.85;;
5674;SDS011;2860;54.284;10.158;2023-05-06T10:38:05;15.90;;;10.95;;
5674;SDS011;2860;54.284;10.158;2023-05-06T10:40:36;10.68;;;8.45;;
5674;SDS011;2860;54.284;10.158;2023-05-06T10:43:44;13.85;;;9.98;;
5674;SDS011;2860;54.284;10.158;2023-05-06T10:46:03;9.90;;;8.23;;
5674;SDS011;2860;54.284;10.158;2023-05-06T10:48:31;11.52;;;8.43;;
5674;SDS011;2860;54.284;10.158;2023-05-06T10:56:31;7.55;;;6.82;;
5674;SDS011;2860;54.284;10.158;2023-05-06T10:59:03;7.95;;;7.25;;
5674;SDS011;2860;54.284;10.158;2023-05-06T11:01:36;8.07;;;7.28;;
5674;SDS011;2860;54.284;10.158;2023-05-06T11:04:03;10.38;;;7.00;;
5674;SDS011;2860;54.284;10.158;2023-05-06T11:09:14;6.47;;;6.07;;
5674;SDS011;2860;54.284;10.158;2023-05-06T11:14:24;6.88;;;6.25;;
5674;SDS011;2860;54.284;10.158;2023-05-06T11:16:51;7.22;;;6.72;;
5674;SDS011;2860;54.284;10.158;2023-05-06T11:19:24;18.85;;;8.57;;
5674;SDS011;2860;54.284;10.158;2023-05-06T11:21:51;7.18;;;6.38;;
5674;SDS011;2860;54.284;10.158;2023-05-06T11:24:37;7.20;;;6.68;;
5674;SDS011;2860;54.284;10.158;2023-05-06T11:27:04;7.75;;;5.53;;
5674;SDS011;2860;54.284;10.158;2023-05-06T11:29:30;3.47;;;3.38;;
5674;SDS011;2860;54.284;10.158;2023-05-06T11:31:56;5.43;;;5.03;;
5674;SDS011;2860;54.284;10.158;2023-05-06T11:34:26;4.85;;;4.53;;
5674;SDS011;2860;54.284;10.158;2023-05-06T11:37:06;5.05;;;4.85;;
5674;SDS011;2860;54.284;10.158;2023-05-06T11:39:34;6.18;;;5.75;;
5674;SDS011;2860;54.284;10.158;2023-05-06T11:42:01;4.80;;;4.70;;
5674;SDS011;2860;54.284;10.158;2023-05-06T11:44:29;4.85;;;4.55;;
5674;SDS011;2860;54.284;10.158;2023-05-06T11:46:57;5.55;;;5.28;;
5674;SDS011;2860;54.284;10.158;2023-05-06T11:49:37;5.60;;;5.32;;
5674;SDS011;2860;54.284;10.158;2023-05-06T11:52:05;5.45;;;5.15;;
5674;SDS011;2860;54.284;10.158;2023-05-06T11:54:33;4.97;;;4.78;;
5674;SDS011;2860;54.284;10.158;2023-05-06T11:56:59;5.05;;;4.82;;
5674;SDS011;2860;54.284;10.158;2023-05-06T11:59:27;5.47;;;5.03;;
5674;SDS011;2860;54.284;10.158;2023-05-06T12:01:52;5.10;;;4.88;;
5674;SDS011;2860;54.284;10.158;2023-05-06T12:04:18;5.13;;;4.93;;
5674;SDS011;2860;54.284;10.158;2023-05-06T12:06:43;4.88;;;4.68;;
5674;SDS011;2860;54.284;10.158;2023-05-06T12:09:10;5.68;;;5.40;;
5674;SDS011;2860;54.284;10.158;2023-05-06T12:11:37;5.78;;;5.38;;
5674;SDS011;2860;54.284;10.158;2023-05-06T12:14:04;5.07;;;4.88;;
5674;SDS011;2860;54.284;10.158;2023-05-06T12:16:32;5.32;;;5.00;;
5674;SDS011;2860;54.284;10.158;2023-05-06T12:18:59;5.15;;;4.95;;
5674;SDS011;2860;54.284;10.158;2023-05-06T12:21:25;6.00;;;5.50;;
5674;SDS011;2860;54.284;10.158;2023-05-06T12:23:51;6.47;;;6.00;;
5674;SDS011;2860;54.284;10.158;2023-05-06T12:26:17;6.13;;;5.63;;
5674;SDS011;2860;54.284;10.158;2023-05-06T12:28:43;7.68;;;7.10;;
5674;SDS011;2860;54.284;10.158;2023-05-06T12:31:19;6.88;;;6.47;;
5674;SDS011;2860;54.284;10.158;2023-05-06T12:33:46;6.20;;;5.80;;
5674;SDS011;2860;54.284;10.158;2023-05-06T12:36:15;6.50;;;6.13;;
5674;SDS011;2860;54.284;10.158;2023-05-06T12:38:51;5.90;;;5.53;;
5674;SDS011;2860;54.284;10.158;2023-05-06T12:41:18;8.18;;;7.57;;
5674;SDS011;2860;54.284;10.158;2023-05-06T12:43:45;8.20;;;7.60;;
5674;SDS011;2860;54.284;10.158;2023-05-06T12:46:10;7.78;;;6.75;;
5674;SDS011;2860;54.284;10.158;2023-05-06T12:48:36;8.10;;;7.30;;
5674;SDS011;2860;54.284;10.158;2023-05-06T12:51:20;11.20;;;9.25;;
5674;SDS011;2860;54.284;10.158;2023-05-06T12:53:46;9.25;;;8.48;;
5674;SDS011;2860;54.284;10.158;2023-05-06T12:56:11;8.65;;;7.78;;
5674;SDS011;2860;54.284;10.158;2023-05-06T12:58:37;8.50;;;7.80;;
5674;SDS011;2860;54.284;10.158;2023-05-06T13:01:03;10.68;;;8.05;;
5674;SDS011;2860;54.284;10.158;2023-05-06T13:03:31;8.68;;;7.88;;
5674;SDS011;2860;54.284;10.158;2023-05-06T13:05:57;8.40;;;7.80;;
5674;SDS011;2860;54.284;10.158;2023-05-06T13:08:23;9.43;;;8.57;;
5674;SDS011;2860;54.284;10.158;2023-05-06T13:10:48;9.80;;;9.10;;
5674;SDS011;2860;54.284;10.158;2023-05-06T13:13:14;8.32;;;7.75;;
5674;SDS011;2860;54.284;10.158;2023-05-06T13:15:40;14.05;;;12.45;;
5674;SDS011;2860;54.284;10.158;2023-05-06T13:18:06;11.60;;;10.55;;
5674;SDS011;2860;54.284;10.158;2023-05-06T13:20:32;8.93;;;8.23;;
5674;SDS011;2860;54.284;10.158;2023-05-06T13:22:58;9.63;;;8.95;;
5674;SDS011;2860;54.284;10.158;2023-05-06T13:25:23;9.52;;;8.65;;
5674;SDS011;2860;54.284;10.158;2023-05-06T13:27:49;14.70;;;10.85;;
5674;SDS011;2860;54.284;10.158;2023-05-06T13:30:14;9.63;;;8.75;;
5674;SDS011;2860;54.284;10.158;2023-05-06T13:32:40;10.27;;;8.75;;
5674;SDS011;2860;54.284;10.158;2023-05-06T13:35:06;9.63;;;8.63;;
5674;SDS011;2860;54.284;10.158;2023-05-06T13:37:32;9.13;;;8.43;;
5674;SDS011;2860;54.284;10.158;2023-05-06T13:39:57;10.40;;;9.45;;
5674;SDS011;2860;54.284;10.158;2023-05-06T13:42:23;10.43;;;9.20;;
5674;SDS011;2860;54.284;10.158;2023-05-06T13:44:48;10.70;;;9.57;;
5674;SDS011;2860;54.284;10.158;2023-05-06T13:47:14;11.80;;;9.70;;
5674;SDS011;2860;54.284;10.158;2023-05-06T13:49:39;12.25;;;9.45;;
5674;SDS011;2860;54.284;10.158;2023-05-06T13:52:05;10.80;;;9.65;;
5674;SDS011;2860;54.284;10.158;2023-05-06T13:54:30;9.70;;;8.77;;
5674;SDS011;2860;54.284;10.158;2023-05-06T13:56:56;10.07;;;9.20;;
5674;SDS011;2860;54.284;10.158;2023-05-06T13:59:22;11.75;;;9.02;;
5674;SDS011;2860;54.284;10.158;2023-05-06T14:01:47;12.45;;;9.70;;
5674;SDS011;2860;54.284;10.158;2023-05-06T14:04:13;11.23;;;9.77;;
5674;SDS011;2860;54.284;10.158;2023-05-06T14:06:39;11.98;;;10.10;;
5674;SDS011;2860;54.284;10.158;2023-05-06T14:09:05;8.90;;;8.02;;
5674;SDS011;2860;54.284;10.158;2023-05-06T14:11:31;12.63;;;9.95;;
5674;SDS011;2860;54.284;10.158;2023-05-06T14:13:56;10.57;;;9.60;;
5674;SDS011;2860;54.284;10.158;2023-05-06T14:16:22;10.50;;;9.30;;
5674;SDS011;2860;54.284;10.158;2023-05-06T14:18:48;9.82;;;8.82;;
5674;SDS011;2860;54.284;10.158;2023-05-06T14:21:13;11.18;;;8.82;;
5674;SDS011;2860;54.284;10.158;2023-05-06T14:23:38;10.13;;;9.07;;
5674;SDS011;2860;54.284;10.158;2023-05-06T14:26:10;10.35;;;8.38;;
5674;SDS011;2860;54.284;10.158;2023-05-06T14:28:45;10.38;;;9.45;;
5674;SDS011;2860;54.284;10.158;2023-05-06T14:31:10;11.63;;;9.57;;
5674;SDS011;2860;54.284;10.158;2023-05-06T14:33:36;12.65;;;9.70;;
5674;SDS011;2860;54.284;10.158;2023-05-06T14:36:02;9.80;;;9.00;;
5674;SDS011;2860;54.284;10.158;2023-05-06T14:38:28;12.75;;;10.45;;
5674;SDS011;2860;54.284;10.158;2023-05-06T14:40:54;10.88;;;9.90;;
5674;SDS011;2860;54.284;10.158;2023-05-06T14:43:20;13.15;;;8.88;;
5674;SDS011;2860;54.284;10.158;2023-05-06T14:45:45;14.23;;;10.07;;
5674;SDS011;2860;54.284;10.158;2023-05-06T14:48:11;28.77;;;9.80;;
5674;SDS011;2860;54.284;10.158;2023-05-06T14:50:37;9.82;;;8.82;;
5674;SDS011;2860;54.284;10.158;2023-05-06T14:53:02;10.75;;;8.95;;
5674;SDS011;2860;54.284;10.158;2023-05-06T14:55:28;12.43;;;9.65;;
5674;SDS011;2860;54.284;10.158;2023-05-06T14:57:53;10.52;;;9.43;;
5674;SDS011;2860;54.284;10.158;2023-05-06T15:00:19;10.93;;;8.98;;
5674;SDS011;2860;54.284;10.158;2023-05-06T15:02:44;8.35;;;7.55;;
5674;SDS011;2860;54.284;10.158;2023-05-06T15:05:10;9.82;;;8.85;;
5674;SDS011;2860;54.284;10.158;2023-05-06T15:07:38;8.50;;;7.70;;
5674;SDS011;2860;54.284;10.158;2023-05-06T15:10:07;10.68;;;7.75;;
5674;SDS011;2860;54.284;10.158;2023-05-06T15:12:32;12.73;;;10.80;;
5674;SDS011;2860;54.284;10.158;2023-05-06T15:15:00;9.88;;;8.15;;
5674;SDS011;2860;54.284;10.158;2023-05-06T15:17:25;12.45;;;8.93;;
5674;SDS011;2860;54.284;10.158;2023-05-06T15:19:51;9.98;;;8.98;;